Time;durP1;ratioP1;P1;durP2;ratioP2;P2;SDS_P1;SDS_P2;PMS_P1;PMS_P2;Temp;Humidity;BMP_temperature;BMP_pressure;BME280_temperature;BME280_humidity;BME280_pressure;Samples;Min_cycle;Max_cycle;Signal;HPM_P1;HPM_P2
2022/01/01 00:02:24;;;;;;;6.90;4.70;;;9.20;99.90;;;;;;5071249;28;20509;-59
2022/01/01 00:04:50;;;;;;;8.65;5.05;;;9.00;99.90;;;;;;5071656;28;20035;-59
2022/01/01 00:07:17;;;;;;;6.88;4.82;;;9.00;99.90;;;;;;5068942;28;20021;-59
2022/01/01 00:09:43;;;;;;;7.75;4.93;;;9.00;99.90;;;;;;5068354;28;20037;-59
2022/01/01 00:12:10;;;;;;;10.57;7.22;;;9.00;99.90;;;;;;5068817;28;20103;-59
2022/01/01 00:14:36;;;;;;;20.98;13.68;;;8.80;99.90;;;;;;5069323;28;20044;-59
2022/01/01 00:17:03;;;;;;;32.55;18.50;;;8.80;99.90;;;;;;5072494;28;20028;-60
2022/01/01 00:19:31;;;;;;;30.20;19.45;;;8.80;99.90;;;;;;5068379;28;20028;-59
2022/01/01 00:21:57;;;;;;;33.80;24.70;;;8.90;99.90;;;;;;5068238;28;20115;-59
2022/01/01 00:24:23;;;;;;;29.42;22.75;;;8.90;99.90;;;;;;5068139;28;20026;-59
2022/01/01 00:26:49;;;;;;;21.00;16.15;;;8.90;99.90;;;;;;5068626;28;20033;-59
2022/01/01 00:29:14;;;;;;;17.80;11.93;;;9.00;99.90;;;;;;5071320;28;20064;-60
2022/01/01 00:31:40;;;;;;;13.95;10.25;;;9.00;99.90;;;;;;5070570;28;20423;-59
2022/01/01 00:34:06;;;;;;;11.20;8.80;;;8.90;99.90;;;;;;5069554;28;20048;-60
2022/01/01 00:36:32;;;;;;;14.57;10.05;;;8.90;99.90;;;;;;5067868;28;20047;-59
2022/01/01 00:38:58;;;;;;;12.93;8.10;;;8.80;99.90;;;;;;5066577;28;20446;-59
2022/01/01 00:41:24;;;;;;;13.57;10.43;;;8.80;99.90;;;;;;5070187;28;20025;-59
2022/01/01 00:43:49;;;;;;;12.05;8.50;;;8.80;99.90;;;;;;5069752;28;20024;-59
2022/01/01 00:46:15;;;;;;;9.57;7.55;;;8.80;99.90;;;;;;5067914;28;20021;-60
2022/01/01 00:48:41;;;;;;;14.40;11.02;;;8.70;99.90;;;;;;5067902;28;20426;-59
2022/01/01 00:51:06;;;;;;;17.73;13.30;;;8.80;99.90;;;;;;5067930;28;20028;-59
2022/01/01 00:53:32;;;;;;;17.17;13.57;;;8.70;99.90;;;;;;5069317;28;20508;-59
2022/01/01 00:55:58;;;;;;;9.93;7.72;;;8.60;99.90;;;;;;5070930;28;20040;-60
2022/01/01 00:58:24;;;;;;;23.02;19.92;;;8.60;99.90;;;;;;5067850;28;20019;-60
2022/01/01 01:00:50;;;;;;;18.60;14.65;;;8.50;99.90;;;;;;5067692;28;20033;-60
2022/01/01 01:03:17;;;;;;;38.13;26.50;;;8.60;99.90;;;;;;5067997;28;20023;-60
2022/01/01 01:05:45;;;;;;;50.80;32.65;;;8.50;99.90;;;;;;5067562;28;20039;-60
2022/01/01 01:08:13;;;;;;;42.85;28.30;;;8.50;99.90;;;;;;5071332;28;20441;-59
2022/01/01 01:10:40;;;;;;;15.30;12.77;;;8.30;99.90;;;;;;5069798;28;20039;-59
2022/01/01 01:13:08;;;;;;;10.15;8.55;;;8.00;99.90;;;;;;5068973;28;20028;-59
2022/01/01 01:15:34;;;;;;;13.13;9.98;;;7.90;99.90;;;;;;5067407;28;20040;-59
2022/01/01 01:18:01;;;;;;;9.48;7.10;;;7.90;99.90;;;;;;5069471;28;20028;-59
2022/01/01 01:20:28;;;;;;;12.18;7.47;;;7.90;99.90;;;;;;5070129;28;20194;-59
2022/01/01 01:22:55;;;;;;;9.88;6.53;;;8.10;99.90;;;;;;5069857;28;20032;-60
2022/01/01 01:25:22;;;;;;;10.23;7.05;;;8.20;99.90;;;;;;5068111;28;20028;-59
2022/01/01 01:27:50;;;;;;;8.30;7.07;;;8.20;99.90;;;;;;5068242;28;20028;-59
2022/01/01 01:30:16;;;;;;;10.18;6.72;;;8.20;99.90;;;;;;5067667;28;20028;-60
2022/01/01 01:32:46;;;;;;;9.18;6.72;;;8.30;99.90;;;;;;5067490;28;20041;-59
2022/01/01 01:35:14;;;;;;;7.85;5.85;;;8.40;99.90;;;;;;5070822;28;20550;-59
2022/01/01 01:37:40;;;;;;;9.23;6.40;;;8.40;99.90;;;;;;5068225;28;20025;-59
2022/01/01 01:40:07;;;;;;;8.85;7.20;;;8.40;99.90;;;;;;5067294;28;20047;-59
2022/01/01 01:42:34;;;;;;;8.55;5.88;;;8.40;99.90;;;;;;5067647;28;20028;-59
2022/01/01 01:45:03;;;;;;;8.00;6.15;;;8.40;99.90;;;;;;5067199;28;20036;-59
2022/01/01 01:47:34;;;;;;;9.00;6.63;;;8.40;99.90;;;;;;5068591;28;20031;-60
2022/01/01 01:50:04;;;;;;;6.78;5.40;;;8.40;99.90;;;;;;5071781;28;20109;-59
2022/01/01 01:52:33;;;;;;;9.10;5.85;;;8.40;99.90;;;;;;5069206;28;20178;-59
2022/01/01 01:55:01;;;;;;;9.15;6.65;;;8.40;99.90;;;;;;5071043;28;20050;-60
2022/01/01 01:57:27;;;;;;;7.47;6.00;;;8.40;99.90;;;;;;5071397;28;20016;-59
2022/01/01 01:59:53;;;;;;;9.70;7.28;;;8.30;99.90;;;;;;5071396;28;20036;-59
2022/01/01 02:02:19;;;;;;;10.85;7.13;;;8.40;99.90;;;;;;5073599;28;20028;-60
2022/01/01 02:04:45;;;;;;;8.20;6.18;;;8.30;99.90;;;;;;5072273;28;20021;-59
2022/01/01 02:07:11;;;;;;;8.32;5.60;;;8.40;99.90;;;;;;5070965;28;20025;-59
2022/01/01 02:09:38;;;;;;;7.18;5.53;;;8.30;99.90;;;;;;5071124;28;20047;-60
2022/01/01 02:12:06;;;;;;;6.80;5.82;;;8.30;99.90;;;;;;5071409;28;20024;-59
2022/01/01 02:15:45;;;;;;;6.60;5.63;;;8.30;99.90;;;;;;5072312;28;20063;-59
2022/01/01 02:17:34;;;;;;;7.38;5.22;;;8.30;99.90;;;;;;5067216;28;20060;-59
2022/01/01 02:20:28;;;;;;;10.93;8.70;;;8.30;99.90;;;;;;5073603;28;20025;-59
2022/01/01 02:22:58;;;;;;;10.93;9.52;;;8.20;99.90;;;;;;5072328;28;20040;-59
2022/01/01 02:25:24;;;;;;;11.57;9.75;;;8.10;99.90;;;;;;5070706;28;20399;-59
2022/01/01 02:27:50;;;;;;;11.13;9.65;;;8.00;99.90;;;;;;5071991;28;20036;-60
2022/01/01 02:30:16;;;;;;;11.38;9.32;;;7.80;99.90;;;;;;5072198;28;20475;-59
2022/01/01 02:32:42;;;;;;;12.50;11.20;;;7.70;99.90;;;;;;5070177;28;20076;-59
2022/01/01 02:35:10;;;;;;;11.38;9.23;;;7.80;99.90;;;;;;5070148;28;20024;-59
2022/01/01 02:37:37;;;;;;;12.95;11.60;;;7.70;99.90;;;;;;5070628;28;20036;-59
2022/01/01 02:40:05;;;;;;;23.38;21.08;;;7.70;99.90;;;;;;5070422;28;20078;-59
2022/01/01 02:42:32;;;;;;;10.90;9.70;;;7.70;99.90;;;;;;5070502;28;20052;-59
2022/01/01 02:45:00;;;;;;;9.95;7.68;;;7.60;99.90;;;;;;5070653;28;20090;-59
2022/01/01 02:47:26;;;;;;;9.25;7.85;;;7.60;99.90;;;;;;5072627;28;20029;-59
2022/01/01 02:49:52;;;;;;;9.25;8.13;;;7.50;99.90;;;;;;5071886;28;20028;-59
2022/01/01 02:52:17;;;;;;;11.18;9.50;;;7.40;99.90;;;;;;5070654;28;20093;-59
2022/01/01 02:54:43;;;;;;;10.45;7.95;;;7.20;99.90;;;;;;5070086;28;20419;-59
2022/01/01 02:57:09;;;;;;;8.85;6.85;;;7.10;99.90;;;;;;5070174;28;20070;-59
2022/01/01 02:59:35;;;;;;;9.75;6.50;;;7.20;99.90;;;;;;5071062;28;20558;-59
2022/01/01 03:02:00;;;;;;;13.10;10.98;;;7.10;99.90;;;;;;5073039;28;20032;-59
2022/01/01 03:04:26;;;;;;;13.55;9.27;;;7.00;99.90;;;;;;5068890;28;20479;-59
2022/01/01 03:06:56;;;;;;;16.88;12.82;;;6.80;99.90;;;;;;5071986;28;20453;-59
2022/01/01 03:09:24;;;;;;;16.50;12.32;;;6.60;99.90;;;;;;5071198;28;20033;-59
2022/01/01 03:11:50;;;;;;;8.82;6.32;;;6.30;99.90;;;;;;5069881;28;20024;-59
2022/01/01 03:14:17;;;;;;;9.65;6.90;;;6.50;99.90;;;;;;5072713;28;20480;-59
2022/01/01 03:16:47;;;;;;;10.35;8.07;;;6.50;99.90;;;;;;5072442;28;20025;-59
2022/01/01 03:19:14;;;;;;;8.40;6.80;;;6.60;99.90;;;;;;5069352;28;20104;-59
2022/01/01 03:21:40;;;;;;;11.45;7.22;;;6.70;99.90;;;;;;5069945;28;20027;-59
2022/01/01 03:24:06;;;;;;;8.30;6.13;;;6.90;99.90;;;;;;5069866;28;20028;-59
2022/01/01 03:26:32;;;;;;;8.05;5.57;;;6.90;99.90;;;;;;5071114;28;20033;-60
2022/01/01 03:28:58;;;;;;;7.82;5.78;;;6.90;99.90;;;;;;5072792;28;20451;-60
2022/01/01 03:31:26;;;;;;;7.47;5.90;;;6.90;99.90;;;;;;5069520;28;20158;-59
2022/01/01 03:33:53;;;;;;;11.35;5.35;;;6.90;99.90;;;;;;5069038;28;20583;-59
2022/01/01 03:36:19;;;;;;;6.85;5.03;;;6.90;99.90;;;;;;5069663;28;20024;-59
2022/01/01 03:38:45;;;;;;;6.88;5.25;;;7.00;99.90;;;;;;5070142;28;20025;-59
2022/01/01 03:41:11;;;;;;;8.45;5.93;;;6.90;99.90;;;;;;5073139;28;20034;-60
2022/01/01 03:43:37;;;;;;;9.43;5.50;;;6.80;99.90;;;;;;5069585;28;20024;-58
2022/01/01 03:46:03;;;;;;;6.93;5.95;;;6.60;99.90;;;;;;5070781;28;20387;-59
2022/01/01 03:48:29;;;;;;;6.85;5.57;;;6.20;99.90;;;;;;5070830;28;20040;-59
2022/01/01 03:50:54;;;;;;;7.13;5.55;;;6.10;99.90;;;;;;5069173;28;20021;-59
2022/01/01 03:53:21;;;;;;;9.93;6.25;;;6.00;99.90;;;;;;5071549;28;20028;-59
2022/01/01 03:55:47;;;;;;;8.27;6.20;;;6.00;99.90;;;;;;5071119;28;20052;-59
2022/01/01 03:58:13;;;;;;;9.95;7.32;;;6.00;99.90;;;;;;5068879;28;20040;-59
2022/01/01 04:00:40;;;;;;;7.53;6.13;;;6.00;99.90;;;;;;5068569;28;20043;-58
2022/01/01 04:03:08;;;;;;;9.80;7.30;;;6.10;99.90;;;;;;5068879;28;20019;-59
2022/01/01 04:05:35;;;;;;;9.13;6.70;;;6.00;99.90;;;;;;5070259;28;20028;-59
2022/01/01 04:08:02;;;;;;;9.50;7.93;;;5.80;99.90;;;;;;5071959;28;20402;-59
2022/01/01 04:10:30;;;;;;;10.05;7.72;;;5.80;99.90;;;;;;5068688;28;20020;-60
2022/01/01 04:12:58;;;;;;;10.50;7.40;;;5.60;99.90;;;;;;5068831;28;20032;-59
2022/01/01 04:15:24;;;;;;;10.23;6.50;;;5.60;99.90;;;;;;5068098;28;20024;-59
2022/01/01 04:17:49;;;;;;;7.90;7.10;;;5.70;99.90;;;;;;5068051;28;20024;-59
2022/01/01 04:20:15;;;;;;;9.73;7.03;;;5.60;99.90;;;;;;5071447;28;20027;-62
2022/01/01 04:22:41;;;;;;;9.43;7.15;;;5.60;99.90;;;;;;5069338;28;20062;-59
2022/01/01 04:25:06;;;;;;;9.40;6.97;;;5.80;99.90;;;;;;5070366;28;20107;-59
2022/01/01 04:27:32;;;;;;;8.05;6.70;;;5.80;99.90;;;;;;5069749;28;20021;-59
2022/01/01 04:29:58;;;;;;;11.05;8.57;;;5.90;99.90;;;;;;5067857;28;20111;-61
2022/01/01 04:32:24;;;;;;;10.27;8.18;;;6.00;99.90;;;;;;5070450;28;20044;-61
2022/01/01 04:34:49;;;;;;;9.50;8.25;;;5.90;99.90;;;;;;5068571;28;20135;-61
2022/01/01 04:37:18;;;;;;;13.45;10.32;;;5.80;99.90;;;;;;5068015;28;20012;-61
2022/01/01 04:39:44;;;;;;;12.35;9.23;;;5.90;99.90;;;;;;5070186;28;20043;-61
2022/01/01 04:42:10;;;;;;;13.75;10.02;;;5.80;99.90;;;;;;5068075;28;20017;-62
2022/01/01 04:44:35;;;;;;;11.88;9.32;;;5.50;99.90;;;;;;5068803;28;20056;-61
2022/01/01 04:47:01;;;;;;;11.30;9.00;;;5.40;99.90;;;;;;5071161;28;20074;-61
2022/01/01 04:49:27;;;;;;;10.23;7.05;;;5.50;99.90;;;;;;5068083;28;20067;-61
2022/01/01 04:51:52;;;;;;;10.00;7.63;;;5.50;99.90;;;;;;5068043;28;20027;-61
2022/01/01 04:54:18;;;;;;;9.95;7.50;;;5.70;99.90;;;;;;5067987;28;20441;-59
2022/01/01 04:56:46;;;;;;;8.57;6.80;;;5.80;99.90;;;;;;5067872;28;20055;-59
2022/01/01 04:59:12;;;;;;;8.02;6.78;;;5.90;99.90;;;;;;5071420;28;20028;-59
2022/01/01 05:01:39;;;;;;;8.18;6.78;;;5.90;99.90;;;;;;5070216;28;20031;-60
2022/01/01 05:04:05;;;;;;;8.63;5.90;;;5.90;99.90;;;;;;5069231;28;20021;-59
2022/01/01 05:06:31;;;;;;;7.55;6.47;;;6.30;99.90;;;;;;5069096;28;20027;-59
2022/01/01 05:08:58;;;;;;;7.85;6.43;;;6.20;99.90;;;;;;5068066;28;20068;-60
2022/01/01 05:11:23;;;;;;;8.68;6.05;;;6.10;99.90;;;;;;5070175;28;20071;-59
2022/01/01 05:13:49;;;;;;;8.88;6.30;;;6.30;99.90;;;;;;5068830;28;20056;-59
2022/01/01 05:16:18;;;;;;;9.23;6.18;;;6.10;99.90;;;;;;5067526;28;20475;-59
2022/01/01 05:18:44;;;;;;;6.63;5.40;;;6.50;99.90;;;;;;5067593;28;20041;-60
2022/01/01 05:21:10;;;;;;;7.57;5.90;;;6.50;99.90;;;;;;5067557;28;20040;-59
2022/01/01 05:23:36;;;;;;;6.82;5.57;;;6.70;99.90;;;;;;5069201;28;20064;-59
2022/01/01 05:26:02;;;;;;;6.63;5.10;;;6.60;99.90;;;;;;5070580;28;20028;-59
2022/01/01 05:28:27;;;;;;;8.45;5.43;;;6.70;99.90;;;;;;5066596;28;20041;-59
2022/01/01 05:30:53;;;;;;;9.68;5.50;;;6.70;99.90;;;;;;5067476;28;20479;-59
2022/01/01 05:33:19;;;;;;;7.57;5.43;;;6.90;99.90;;;;;;5067643;28;20048;-59
2022/01/01 05:35:44;;;;;;;8.55;5.43;;;7.00;99.90;;;;;;5067605;28;20494;-59
2022/01/01 05:38:10;;;;;;;10.70;6.97;;;6.80;99.90;;;;;;5071601;28;20020;-59
2022/01/01 05:40:36;;;;;;;7.22;4.78;;;6.80;99.90;;;;;;5066967;28;20403;-59
2022/01/01 05:43:01;;;;;;;6.50;5.25;;;7.10;99.90;;;;;;5068534;28;20074;-59
2022/01/01 05:45:27;;;;;;;6.78;5.18;;;6.80;99.90;;;;;;5068916;28;20116;-59
2022/01/01 05:47:53;;;;;;;6.97;4.97;;;7.00;99.90;;;;;;5067482;28;20127;-59
2022/01/01 05:50:20;;;;;;;6.57;5.40;;;7.10;99.90;;;;;;5070238;28;20505;-59
2022/01/01 05:52:46;;;;;;;7.50;5.82;;;6.80;99.90;;;;;;5070537;28;20527;-59
2022/01/01 05:55:12;;;;;;;6.88;5.32;;;6.50;99.90;;;;;;5066842;28;20042;-59
2022/01/01 05:57:38;;;;;;;7.07;5.25;;;6.50;99.90;;;;;;5067256;28;20513;-59
2022/01/01 06:00:07;;;;;;;7.45;5.05;;;6.60;99.90;;;;;;5067623;28;20044;-59
2022/01/01 06:02:42;;;;;;;6.80;5.15;;;6.60;99.90;;;;;;5068534;28;20032;-59
2022/01/01 06:05:09;;;;;;;6.93;5.35;;;6.70;99.90;;;;;;5066973;28;20025;-59
2022/01/01 06:07:36;;;;;;;6.78;4.88;;;6.70;99.90;;;;;;5066980;28;20032;-60
2022/01/01 06:10:03;;;;;;;7.28;5.32;;;6.70;99.90;;;;;;5066920;28;20043;-59
2022/01/01 06:12:29;;;;;;;6.75;5.00;;;6.50;99.90;;;;;;5067082;28;20031;-59
2022/01/01 06:14:54;;;;;;;6.50;4.85;;;6.60;99.90;;;;;;5067430;28;20060;-59
2022/01/01 06:17:20;;;;;;;6.35;4.55;;;6.90;99.90;;;;;;5069488;28;20122;-62
2022/01/01 06:19:46;;;;;;;6.70;4.75;;;6.90;99.90;;;;;;5068955;28;20103;-61
2022/01/01 06:22:13;;;;;;;7.80;4.93;;;6.90;99.90;;;;;;5067243;28;20028;-62
2022/01/01 06:24:39;;;;;;;6.10;4.65;;;6.90;99.90;;;;;;5068538;28;20046;-61
2022/01/01 06:27:05;;;;;;;6.20;4.60;;;6.90;99.90;;;;;;5067074;28;20489;-61
2022/01/01 06:29:31;;;;;;;6.30;4.65;;;7.00;99.90;;;;;;5068845;28;20046;-61
2022/01/01 06:31:57;;;;;;;6.38;4.82;;;7.00;99.90;;;;;;5069132;28;20124;-62
2022/01/01 06:34:22;;;;;;;5.30;4.55;;;7.00;99.90;;;;;;5066797;28;20126;-62
2022/01/01 06:36:51;;;;;;;7.53;4.80;;;7.00;99.90;;;;;;5068528;28;20024;-62
2022/01/01 06:39:17;;;;;;;6.80;4.82;;;6.90;99.90;;;;;;5067225;28;20086;-61
2022/01/01 06:41:43;;;;;;;7.95;4.80;;;6.80;99.90;;;;;;5070247;28;20570;-61
2022/01/01 06:44:09;;;;;;;8.50;4.88;;;6.70;99.90;;;;;;5070298;28;20107;-62
2022/01/01 06:46:34;;;;;;;6.38;5.32;;;6.50;99.90;;;;;;5070526;28;20429;-62
2022/01/01 06:49:00;;;;;;;7.50;4.72;;;6.30;99.90;;;;;;5069979;28;20032;-62
2022/01/01 06:51:26;;;;;;;7.22;5.10;;;6.20;99.90;;;;;;5070547;28;20071;-62
2022/01/01 06:53:51;;;;;;;7.65;4.80;;;6.20;99.90;;;;;;5070273;28;20025;-62
2022/01/01 06:56:17;;;;;;;5.78;4.80;;;6.20;99.90;;;;;;5072707;28;20038;-62
2022/01/01 06:58:44;;;;;;;6.78;5.00;;;6.20;99.90;;;;;;5071219;28;20071;-61
2022/01/01 07:01:10;;;;;;;7.07;5.13;;;6.30;99.90;;;;;;5071456;28;20455;-62
2022/01/01 07:03:36;;;;;;;6.75;4.82;;;6.20;99.90;;;;;;5072175;28;20070;-62
2022/01/01 07:06:02;;;;;;;8.57;5.32;;;6.30;99.90;;;;;;5069851;28;20392;-61
2022/01/01 07:08:28;;;;;;;7.18;5.22;;;6.30;99.90;;;;;;5073039;28;20032;-61
2022/01/01 07:10:54;;;;;;;7.25;4.53;;;6.30;99.90;;;;;;5071882;28;20052;-61
2022/01/01 07:13:20;;;;;;;8.85;4.85;;;6.40;99.90;;;;;;5069950;28;20049;-61
2022/01/01 07:15:45;;;;;;;7.70;5.20;;;6.50;99.90;;;;;;5070479;28;20030;-62
2022/01/01 07:18:11;;;;;;;8.52;5.25;;;6.40;99.90;;;;;;5069748;28;20090;-61
2022/01/01 07:20:37;;;;;;;9.05;5.28;;;6.40;99.90;;;;;;5070792;28;20033;-61
2022/01/01 07:23:03;;;;;;;6.57;4.68;;;6.50;99.90;;;;;;5073272;28;20055;-61
2022/01/01 07:25:29;;;;;;;6.30;4.75;;;6.60;99.90;;;;;;5069225;28;20039;-61
2022/01/01 07:27:55;;;;;;;6.65;5.10;;;6.70;99.90;;;;;;5069495;28;20031;-61
2022/01/01 07:30:21;;;;;;;6.72;4.95;;;6.60;99.90;;;;;;5069497;28;20130;-62
2022/01/01 07:32:49;;;;;;;6.95;4.65;;;6.70;99.90;;;;;;5069301;28;20068;-61
2022/01/01 07:35:17;;;;;;;5.25;4.43;;;6.80;99.90;;;;;;5072716;28;20035;-61
2022/01/01 07:37:43;;;;;;;6.60;4.97;;;6.80;99.90;;;;;;5070500;28;20016;-61
2022/01/01 07:40:12;;;;;;;7.45;4.80;;;6.90;99.90;;;;;;5070604;28;20033;-62
2022/01/01 07:42:38;;;;;;;6.35;4.82;;;7.00;99.90;;;;;;5070988;28;20013;-61
2022/01/01 07:45:05;;;;;;;7.20;4.78;;;7.00;99.90;;;;;;5069224;28;20044;-62
2022/01/01 07:47:31;;;;;;;7.82;4.50;;;6.90;99.90;;;;;;5070918;28;20103;-62
2022/01/01 07:49:57;;;;;;;5.70;4.43;;;7.00;99.90;;;;;;5072169;28;20123;-61
2022/01/01 07:52:22;;;;;;;6.07;4.60;;;7.10;99.90;;;;;;5070701;28;20024;-61
2022/01/01 07:54:48;;;;;;;6.43;4.50;;;7.10;99.90;;;;;;5068887;28;20479;-61
2022/01/01 07:57:14;;;;;;;6.40;4.68;;;7.30;99.90;;;;;;5069213;28;20406;-61
2022/01/01 07:59:40;;;;;;;6.05;4.43;;;7.30;99.90;;;;;;5070099;28;20090;-62
2022/01/01 08:02:05;;;;;;;7.10;4.30;;;7.40;99.90;;;;;;5072703;28;20103;-61
2022/01/01 08:04:31;;;;;;;7.72;4.80;;;7.50;99.90;;;;;;5068716;28;20533;-61
2022/01/01 08:06:57;;;;;;;5.50;4.25;;;7.60;99.90;;;;;;5068776;28;20021;-62
2022/01/01 08:09:22;;;;;;;5.63;4.60;;;7.70;99.90;;;;;;5068551;28;20060;-61
2022/01/01 08:11:50;;;;;;;7.82;4.28;;;7.70;99.90;;;;;;5068796;28;20032;-62
2022/01/01 08:14:16;;;;;;;6.03;4.80;;;7.80;99.90;;;;;;5071729;28;20441;-62
2022/01/01 08:17:02;;;;;;;5.72;4.60;;;7.90;99.90;;;;;;5069189;28;20021;-59
2022/01/01 08:19:28;;;;;;;6.75;5.00;;;8.10;99.90;;;;;;5070127;28;20107;-59
2022/01/01 08:21:54;;;;;;;7.35;5.15;;;8.30;99.90;;;;;;5069594;28;20019;-59
2022/01/01 08:24:21;;;;;;;6.85;5.22;;;9.00;99.90;;;;;;5068441;28;20490;-59
2022/01/01 08:26:47;;;;;;;6.43;4.82;;;10.10;99.90;;;;;;5068915;28;20122;-59
2022/01/01 08:29:13;;;;;;;6.25;4.80;;;10.70;99.90;;;;;;5072544;28;20049;-59
2022/01/01 08:31:38;;;;;;;7.57;5.18;;;10.40;99.90;;;;;;5068369;28;20032;-59
2022/01/01 08:34:04;;;;;;;7.30;4.55;;;10.60;99.90;;;;;;5067836;28;20040;-60
2022/01/01 08:36:30;;;;;;;5.30;4.30;;;10.80;99.90;;;;;;5068908;28;20029;-59
2022/01/01 08:38:55;;;;;;;7.00;4.32;;;11.30;99.90;;;;;;5068807;28;20021;-60
2022/01/01 08:41:21;;;;;;;5.35;3.97;;;12.30;99.90;;;;;;5070617;28;20521;-59
2022/01/01 08:43:47;;;;;;;7.10;4.18;;;12.90;99.90;;;;;;5069846;28;20043;-60
2022/01/01 08:46:13;;;;;;;6.47;4.28;;;13.70;99.90;;;;;;5068321;28;20031;-59
2022/01/01 08:48:40;;;;;;;5.82;4.50;;;13.60;99.90;;;;;;5068410;28;20131;-59
2022/01/01 08:51:16;;;;;;;4.90;4.25;;;13.70;99.90;;;;;;5067595;28;20036;-60
2022/01/01 08:53:42;;;;;;;5.97;3.97;;;13.90;99.90;;;;;;5052256;28;20032;-60
2022/01/01 08:56:08;;;;;;;5.90;4.30;;;13.70;99.90;;;;;;5071835;28;20021;-60
2022/01/01 08:58:34;;;;;;;4.45;3.78;;;14.30;99.90;;;;;;5069197;28;20146;-59
2022/01/01 09:01:00;;;;;;;7.18;3.90;;;15.50;99.90;;;;;;5069437;28;20568;-60
2022/01/01 09:03:26;;;;;;;5.50;4.10;;;15.70;99.90;;;;;;5066807;28;20103;-59
2022/01/01 09:05:52;;;;;;;5.32;3.95;;;15.80;99.90;;;;;;5067548;28;20104;-59
2022/01/01 09:08:17;;;;;;;6.60;4.30;;;15.40;99.90;;;;;;5071193;28;20067;-59
2022/01/01 09:10:43;;;;;;;5.60;3.85;;;15.20;99.90;;;;;;5068767;28;20459;-60
2022/01/01 09:13:09;;;;;;;4.90;4.38;;;15.70;99.90;;;;;;5067494;28;20033;-60
2022/01/01 09:15:34;;;;;;;4.53;4.13;;;16.20;99.90;;;;;;5067815;28;20056;-60
2022/01/01 09:18:00;;;;;;;6.28;4.47;;;16.70;99.90;;;;;;5067684;28;20021;-60
2022/01/01 09:20:26;;;;;;;6.03;4.32;;;16.70;99.90;;;;;;5069884;28;20033;-59
2022/01/01 09:22:51;;;;;;;5.15;3.85;;;15.90;99.90;;;;;;5069517;28;20028;-60
2022/01/01 09:25:17;;;;;;;5.18;3.45;;;15.70;99.90;;;;;;5068090;28;20487;-59
2022/01/01 09:27:43;;;;;;;5.28;4.20;;;15.00;99.90;;;;;;5066792;28;20032;-59
2022/01/01 09:30:09;;;;;;;5.32;3.83;;;15.10;99.90;;;;;;5067799;28;20025;-60
2022/01/01 09:32:35;;;;;;;6.72;4.30;;;15.40;99.90;;;;;;5069072;28;20068;-60
2022/01/01 09:35:02;;;;;;;6.13;3.97;;;15.60;99.90;;;;;;5070561;28;20498;-59
2022/01/01 09:37:29;;;;;;;4.90;3.85;;;15.90;99.90;;;;;;5069620;28;20443;-59
2022/01/01 09:39:57;;;;;;;5.57;4.13;;;16.10;99.90;;;;;;5069659;28;20044;-60
2022/01/01 09:42:23;;;;;;;5.05;3.90;;;16.90;99.90;;;;;;5067203;28;20490;-59
2022/01/01 09:44:51;;;;;;;5.60;3.70;;;16.30;99.90;;;;;;5067764;28;20036;-59
2022/01/01 09:47:17;;;;;;;6.10;3.78;;;16.30;99.90;;;;;;5070119;28;20017;-59
2022/01/01 09:49:43;;;;;;;3.45;3.15;;;17.20;99.90;;;;;;5069876;28;20406;-60
2022/01/01 09:52:09;;;;;;;6.43;3.85;;;17.20;99.90;;;;;;5067184;28;20100;-60
2022/01/01 09:54:36;;;;;;;6.28;3.78;;;17.90;99.90;;;;;;5067135;28;20028;-60
2022/01/01 09:57:03;;;;;;;3.92;2.92;;;17.70;99.90;;;;;;5067483;28;20021;-59
2022/01/01 09:59:28;;;;;;;5.60;3.70;;;18.30;99.90;;;;;;5069751;28;20036;-60
2022/01/01 10:01:54;;;;;;;6.57;3.80;;;18.90;99.90;;;;;;5069200;28;20047;-60
2022/01/01 10:04:20;;;;;;;4.47;3.97;;;19.00;99.40;;;;;;5066864;28;20037;-59
2022/01/01 10:07:05;;;;;;;5.22;3.65;;;18.90;99.90;;;;;;5067097;28;20552;-59
2022/01/01 10:09:32;;;;;;;5.18;3.80;;;19.40;99.40;;;;;;5067127;28;20032;-59
2022/01/01 10:11:58;;;;;;;4.63;3.50;;;20.00;98.90;;;;;;5066881;28;20031;-60
2022/01/01 10:14:38;;;;;;;4.75;3.70;;;20.30;98.40;;;;;;5071639;28;20032;-60
2022/01/01 10:17:15;;;;;;;4.97;3.80;;;19.60;99.00;;;;;;5073954;28;20024;-60
2022/01/01 10:19:41;;;;;;;3.90;3.35;;;19.20;99.90;;;;;;5073308;28;20017;-60
2022/01/01 10:22:11;;;;;;;4.18;3.45;;;19.50;99.50;;;;;;5070382;28;20039;-60
2022/01/01 10:30:07;;;;;;;4.15;3.50;;;20.30;99.20;;;;;;5071091;28;20090;-60
2022/01/01 10:32:32;;;;;;;5.03;3.75;;;19.90;99.30;;;;;;5071792;28;20044;-60
2022/01/01 10:34:59;;;;;;;8.55;4.00;;;20.10;99.40;;;;;;5072965;28;20033;-60
2022/01/01 10:37:30;;;;;;;5.80;4.10;;;20.40;99.10;;;;;;5070441;28;20502;-60
2022/01/01 10:39:57;;;;;;;6.22;4.32;;;20.40;99.50;;;;;;5070383;28;20032;-59
2022/01/01 10:42:23;;;;;;;5.10;3.45;;;20.20;99.50;;;;;;5072017;28;20021;-60
2022/01/01 10:44:51;;;;;;;4.57;3.10;;;20.80;98.80;;;;;;5070586;28;20036;-60
2022/01/01 10:47:30;;;;;;;3.35;3.05;;;21.20;99.00;;;;;;5071587;28;20387;-60
2022/01/01 10:52:37;;;;;;;4.68;3.30;;;21.30;98.40;;;;;;5070333;28;20104;-60
2022/01/01 10:55:07;;;;;;;3.65;3.10;;;21.30;99.20;;;;;;5071648;28;20025;-60
2022/01/01 10:57:38;;;;;;;3.25;2.50;;;21.40;98.80;;;;;;5071780;28;20394;-60
2022/01/01 11:00:14;;;;;;;5.15;3.00;;;21.50;98.60;;;;;;5069915;28;20037;-60
2022/01/01 11:02:43;;;;;;;4.88;2.70;;;21.60;98.50;;;;;;5070616;28;20087;-60
2022/01/01 11:05:09;;;;;;;4.80;2.70;;;22.00;98.70;;;;;;5074146;28;20024;-60
2022/01/01 11:07:35;;;;;;;9.75;3.38;;;22.30;98.80;;;;;;5069976;28;20036;-60
2022/01/01 11:10:01;;;;;;;6.18;3.13;;;22.30;98.40;;;;;;5069692;28;20036;-60
2022/01/01 11:12:29;;;;;;;5.07;2.90;;;22.50;99.10;;;;;;5069753;28;20176;-60
2022/01/01 11:14:56;;;;;;;4.28;2.88;;;22.70;98.80;;;;;;5070154;28;20024;-59
2022/01/01 11:17:23;;;;;;;4.90;2.70;;;22.60;98.70;;;;;;5072252;28;20055;-60
2022/01/01 11:19:49;;;;;;;4.22;2.67;;;22.00;99.90;;;;;;5071237;28;20410;-59
2022/01/01 11:22:16;;;;;;;4.15;2.60;;;22.40;99.60;;;;;;5069424;28;20047;-60
2022/01/01 11:24:42;;;;;;;5.60;2.30;;;22.60;99.40;;;;;;5069610;28;20028;-60
2022/01/01 11:27:09;;;;;;;4.20;2.25;;;22.20;99.50;;;;;;5069168;28;20479;-59
2022/01/01 11:29:35;;;;;;;4.68;2.60;;;22.90;98.60;;;;;;5071129;28;20067;-60
2022/01/01 11:32:06;;;;;;;6.30;3.00;;;23.00;98.60;;;;;;5071923;28;20112;-59
2022/01/01 11:34:36;;;;;;;5.43;2.50;;;23.10;97.90;;;;;;5070730;28;20025;-60
2022/01/01 11:37:03;;;;;;;5.30;2.35;;;23.20;98.50;;;;;;5070947;28;20032;-60
2022/01/01 11:39:29;;;;;;;5.70;2.28;;;23.20;99.00;;;;;;5069595;28;20046;-60
2022/01/01 11:42:10;;;;;;;5.03;2.33;;;23.50;97.30;;;;;;5069579;28;20499;-60
2022/01/01 11:44:36;;;;;;;2.45;1.80;;;23.80;97.10;;;;;;5070181;28;20032;-60
2022/01/01 11:47:13;;;;;;;7.47;2.60;;;23.30;98.30;;;;;;5072553;28;20035;-60
2022/01/01 11:49:39;;;;;;;4.63;2.13;;;23.60;97.70;;;;;;5070086;28;20079;-60
2022/01/01 11:52:05;;;;;;;3.60;1.70;;;23.60;96.30;;;;;;5068933;28;20060;-60
2022/01/01 11:54:34;;;;;;;5.07;2.05;;;23.80;97.40;;;;;;5069060;28;20036;-60
2022/01/01 11:57:23;;;;;;;5.05;2.40;;;24.10;96.60;;;;;;5068985;28;20028;-60
2022/01/01 11:59:54;;;;;;;4.97;1.80;;;23.70;97.00;;;;;;5053334;28;20403;-60
2022/01/01 12:02:20;;;;;;;3.75;1.98;;;23.20;97.20;;;;;;5071322;28;20491;-60
2022/01/01 12:04:48;;;;;;;4.15;1.98;;;23.30;96.60;;;;;;5070952;28;20031;-60
2022/01/01 12:07:16;;;;;;;4.55;1.80;;;23.50;97.90;;;;;;5071420;28;20032;-60
2022/01/01 12:10:05;;;;;;;4.22;1.90;;;23.90;97.50;;;;;;5068499;28;20031;-60
2022/01/01 12:12:46;;;;;;;4.68;1.80;;;24.10;95.70;;;;;;5070061;28;20032;-60
2022/01/01 12:15:24;;;;;;;2.92;2.10;;;24.10;95.70;;;;;;5069960;28;20054;-60
2022/01/01 12:17:53;;;;;;;3.85;1.80;;;24.00;95.30;;;;;;5053774;28;20025;-60
2022/01/01 12:20:22;;;;;;;6.47;1.83;;;23.60;96.40;;;;;;5071413;28;20399;-60
2022/01/01 12:22:49;;;;;;;3.17;1.90;;;23.70;95.40;;;;;;5071662;28;20046;-60
2022/01/01 12:25:24;;;;;;;5.32;2.00;;;23.60;95.70;;;;;;5068723;28;20027;-60
2022/01/01 12:27:51;;;;;;;7.78;2.80;;;23.40;95.10;;;;;;5068255;28;20028;-60
2022/01/01 12:30:50;;;;;;;4.55;2.10;;;23.30;95.20;;;;;;5068168;28;20031;-60
2022/01/01 12:33:36;;;;;;;6.07;1.83;;;23.40;94.90;;;;;;5068174;28;20044;-60
2022/01/01 12:36:07;;;;;;;4.22;2.13;;;23.40;94.90;;;;;;5054685;28;20036;-60
2022/01/01 12:38:33;;;;;;;4.30;2.40;;;23.60;95.00;;;;;;5069134;28;20055;-60
2022/01/01 12:41:08;;;;;;;4.18;2.33;;;23.60;95.50;;;;;;5070838;28;20039;-60
2022/01/01 12:43:47;;;;;;;4.43;2.13;;;23.40;94.80;;;;;;5067978;28;20033;-60
2022/01/01 12:46:14;;;;;;;4.38;2.15;;;23.00;95.80;;;;;;5068487;28;20034;-61
2022/01/01 12:48:41;;;;;;;5.78;2.40;;;23.10;96.10;;;;;;5067559;28;20497;-60
2022/01/01 12:51:09;;;;;;;4.95;2.10;;;23.00;96.00;;;;;;5069587;28;20053;-60
2022/01/01 12:53:38;;;;;;;5.00;2.13;;;22.90;96.30;;;;;;5069326;28;20028;-60
2022/01/01 12:56:15;;;;;;;4.72;2.00;;;22.80;95.90;;;;;;5071102;28;20020;-60
2022/01/01 12:58:46;;;;;;;4.13;2.20;;;22.50;96.60;;;;;;5070085;28;20101;-60
2022/01/01 13:01:13;;;;;;;4.75;2.10;;;22.60;97.40;;;;;;5068570;28;20028;-60